Details From MMTJ - GENERAL ABELARDO L RODRIGUEZ INTL
To KPSP - Palm Springs Intl
Flight Number AA1
Tags decoded
Created
Modified
Stats Distance 121 nm / 224 km
Max Altitude 0 ft / 0 m
Waypoints 8
Social Downloads 2
Likes 1
Share VATSIM

Download

Looking for another format? Having issues loading an existing format? Contact us
Advertisement - Login to hide

Notes

Requested: MMTJ SEVRA JONDA TOMTY ERNUF JISOP SUYSO PUVOC KPSP

Route

MMTJ SEVRA JONDA ERNUF JISOP SUYSO PUVOC KPSP

ID Type Via Altitude Latitude Longitude Leg Dist Tot Dist Heading (true) Name
O MMTJ APT - 0 ft / 0 m 32.54106˚ -116.97016˚ - 0 nm - GENERAL ABELARDO L RODRIGUEZ INTL
SEVRA FIX - 0 ft / 0 m 32.57445˚ -116.36083˚ 30 nm 30 nm 86° / 86° -
JONDA FIX - 0 ft / 0 m 32.69548˚ -116.09788˚ 15 nm 46 nm 61° / 61° -
ERNUF FIX - 0 ft / 0 m 33.26329˚ -116.05470˚ 34 nm 80 nm 4° / 4° -
JISOP FIX - 0 ft / 0 m 33.72587˚ -116.41194˚ 33 nm 113 nm 327° / 327° -
SUYSO FIX - 0 ft / 0 m 33.80789˚ -116.48828˚ 6 nm 119 nm 322° / 322° -
PUVOC FIX - 0 ft / 0 m 33.81861˚ -116.49781˚ 0 nm 120 nm 324° / 324° -
O KPSP APT - 0 ft / 0 m 33.82968˚ -116.50622˚ 0 nm 121 nm 328° / 328° Palm Springs Intl

Altitude Profile

Advertisement - Login to hide

MMTJ

Details ICAO MMTJ (TIJ)
Name GENERAL ABELARDO L RODRIGUEZ INTL
Region Mexico
Timezone America/Tijuana (UTC-7.0)
Stats Elevation 489 ft / 149 m (AMSL)
Location 32.541063° -116.970158°
Runways 1
Magnetic Variation 11.405° E

METAR

MMTJ 240047Z 27010KT 8SM OVC035 17/12 A2999 RMK 8/5// HZY

Decode

TAF

TAF MMTJ 232308Z 2400/2506 28005KT P6SM BKN035 TX21/2420Z TN12/2412Z BECMG 2402/2403 OVC020 FM240600 00000KT 6SM HZ OVC015 BECMG 2409/2410 5SM HZ OVC010 FM241700 26005KT 6SM HZ SCT020 BECMG 2420/2421 30010KT FM250300 30006KT P6SM BKN020

Decode

Departure Runways

ID Width Length Bearing (true) Bearing (mag) Surface Threshold Offset Overrun Length
09 144 ft / 44 m 9,660 ft / 2,944 m 98.85° 87.45° Concrete 0 ft / 0 m 180 ft / 55 m
27 144 ft / 44 m 9,660 ft / 2,944 m 278.86° 267.46° Concrete 0 ft / 0 m 180 ft / 55 m

KPSP

Details ICAO KPSP (PSP)
Name Palm Springs Intl
Region United States
Timezone America/Los_Angeles (UTC-7.0)
Stats Elevation 477 ft / 145 m (AMSL)
Location 33.829677° -116.506218°
Runways 2
Magnetic Variation 11.541° E

METAR

KPSP 240153Z 30011KT 10SM CLR 32/09 A2981 RMK AO2 SLP091 T03170089

Decode

TAF

KPSP 232335Z 2400/2424 32012G20KT P6SM SKC FM240700 VRB06KT P6SM SKC FM242300 33012G20KT P6SM SKC

Decode

Destination Runways

ID Width Length Bearing (true) Bearing (mag) Surface Threshold Offset Overrun Length
13L 75 ft / 23 m 4,958 ft / 1,511 m 143.52° 131.98° Asphalt 0 ft / 0 m 151 ft / 46 m
13R 151 ft / 46 m 10,012 ft / 3,052 m 143.52° 131.98° Asphalt 2,999 ft / 914 m 200 ft / 61 m
31L 151 ft / 46 m 10,012 ft / 3,052 m 323.53° 311.99° Asphalt 1,499 ft / 457 m 200 ft / 61 m
31R 75 ft / 23 m 4,958 ft / 1,511 m 323.53° 311.99° Asphalt 0 ft / 0 m 151 ft / 46 m

Popular Alternatives